Time;durP1;ratioP1;P1;durP2;ratioP2;P2;SDS_P1;SDS_P2;PMS_P1;PMS_P2;Temp;Humidity;BMP_temperature;BMP_pressure;BME280_temperature;BME280_humidity;BME280_pressure;Samples;Min_cycle;Max_cycle;Signal;HPM_P1;HPM_P2
2022/12/12 19:06:05;;;;;;;87.10;24.27;;;;;;;-1.60;100.00;99877.97;1820220;77;29513;-85
2022/12/12 19:08:51;;;;;;;78.80;29.52;;;;;;;-1.54;100.00;99880.59;1782779;78;21352;-85
2022/12/12 19:11:37;;;;;;;82.75;27.48;;;;;;;-1.39;100.00;99880.84;1713000;81;21678;-85
2022/12/12 19:14:22;;;;;;;80.77;26.77;;;;;;;-1.24;100.00;99881.36;1750269;79;20994;-86
2022/12/12 19:17:07;;;;;;;139.85;51.90;;;;;;;-1.12;100.00;99892.22;1761340;81;21547;-85
2022/12/12 19:19:52;;;;;;;96.78;34.63;;;;;;;-1.03;100.00;99897.63;1760717;79;21131;-86
2022/12/12 19:22:38;;;;;;;83.15;33.60;;;;;;;-0.96;100.00;99914.51;1735739;81;20992;-86
2022/12/12 19:25:22;;;;;;;87.15;29.72;;;;;;;-0.84;100.00;99914.64;1726934;81;21028;-86
2022/12/12 19:28:07;;;;;;;81.60;31.68;;;;;;;-0.76;100.00;99919.72;1699284;83;21040;-86
2022/12/12 19:30:52;;;;;;;87.60;35.40;;;;;;;-0.71;100.00;99919.08;1688118;81;21058;-86
2022/12/12 19:33:37;;;;;;;95.53;33.48;;;;;;;-0.66;100.00;99920.58;1710541;82;21051;-87
2022/12/12 19:36:23;;;;;;;88.25;33.90;;;;;;;-0.61;100.00;99926.11;1722546;82;21010;-84
2022/12/12 19:39:10;;;;;;;90.97;30.35;;;;;;;-0.59;100.00;99930.75;1730072;81;21002;-84
2022/12/12 19:41:55;;;;;;;73.45;27.40;;;;;;;-0.58;100.00;99929.69;1725402;82;20920;-83
2022/12/12 19:44:40;;;;;;;72.05;33.05;;;;;;;-0.57;100.00;99939.41;1703821;83;21503;-83
2022/12/12 19:47:26;;;;;;;69.65;27.55;;;;;;;-0.52;100.00;99946.28;1698107;82;20993;-83
2022/12/12 19:50:10;;;;;;;70.47;26.68;;;;;;;-0.46;100.00;99944.05;1683265;83;21073;-83
2022/12/12 19:52:55;;;;;;;70.92;28.95;;;;;;;-0.41;100.00;99953.31;1698749;83;21038;-83
2022/12/12 19:55:46;;;;;;;80.32;35.33;;;;;;;-0.39;100.00;99946.69;1696094;82;21562;-83
2022/12/12 19:58:33;;;;;;;81.08;36.03;;;;;;;-0.38;100.00;99951.52;1717655;82;21159;-84
2022/12/12 20:01:20;;;;;;;77.15;35.58;;;;;;;-0.40;100.00;99960.31;1712129;82;21508;-84
2022/12/12 20:04:17;;;;;;;77.00;34.10;;;;;;;-0.38;100.00;99959.58;1704352;82;21063;-84
2022/12/12 20:07:02;;;;;;;58.65;28.42;;;;;;;-0.41;100.00;99964.05;1703609;83;20990;-83
2022/12/12 20:09:46;;;;;;;75.47;29.52;;;;;;;-0.38;100.00;99956.89;1704995;82;21025;-82
2022/12/12 20:12:31;;;;;;;64.97;20.77;;;;;;;-0.38;100.00;99959.58;1689887;82;21009;-83
2022/12/12 20:15:15;;;;;;;52.10;23.30;;;;;;;-0.41;100.00;99962.19;1702288;82;21017;-82
2022/12/12 20:18:01;;;;;;;57.17;21.55;;;;;;;-0.38;100.00;99959.58;1707120;82;21049;-83
2022/12/12 20:20:46;;;;;;;71.53;22.77;;;;;;;-0.39;100.00;99959.29;1725774;81;21038;-85
2022/12/12 20:23:34;;;;;;;65.97;24.85;;;;;;;-0.37;100.00;99955.34;1706124;81;21216;-84
2022/12/12 20:26:22;;;;;;;67.00;20.32;;;;;;;-0.34;100.00;99956.77;1716065;82;21028;-83
2022/12/12 20:29:09;;;;;;;70.28;25.27;;;;;;;-0.30;100.00;99966.00;1743200;81;21088;-83
2022/12/12 20:31:54;;;;;;;115.30;46.48;;;;;;;-0.30;100.00;99966.82;1726653;81;21033;-84
2022/12/12 20:34:39;;;;;;;84.20;26.70;;;;;;;-0.28;100.00;99963.92;1706233;82;21006;-82
2022/12/12 20:37:24;;;;;;;69.03;23.50;;;;;;;-0.29;100.00;99977.87;1683183;83;20985;-83
2022/12/12 20:40:09;;;;;;;61.08;20.82;;;;;;;-0.28;100.00;99972.80;1740977;81;20999;-83
2022/12/12 20:42:54;;;;;;;51.08;17.55;;;;;;;-0.25;100.00;99976.91;1732144;81;21084;-82
2022/12/12 20:45:39;;;;;;;57.70;18.37;;;;;;;-0.23;100.00;99977.52;1693338;83;21026;-86
2022/12/12 20:48:24;;;;;;;49.67;14.60;;;;;;;-0.22;100.00;99979.17;1694238;83;20963;-83
2022/12/12 20:51:10;;;;;;;47.90;14.00;;;;;;;-0.21;100.00;99975.44;1703792;82;21380;-84
2022/12/12 20:53:59;;;;;;;58.42;17.65;;;;;;;-0.19;100.00;99984.09;1701289;82;21017;-83
2022/12/12 20:56:44;;;;;;;49.65;14.73;;;;;;;-0.20;100.00;99983.78;1690049;83;21016;-83
2022/12/12 20:59:30;;;;;;;50.10;14.95;;;;;;;-0.16;100.00;99977.46;1694136;83;21450;-83
2022/12/12 21:02:15;;;;;;;53.30;17.37;;;;;;;-0.21;100.00;99983.48;1682119;83;21088;-83
